Time;durP1;ratioP1;P1;durP2;ratioP2;P2;SDS_P1;SDS_P2;PMS_P1;PMS_P2;Temp;Humidity;BMP_temperature;BMP_pressure;BME280_temperature;BME280_humidity;BME280_pressure;Samples;Min_cycle;Max_cycle;Signal;HPM_P1;HPM_P2
2021/10/27 00:02:24;;;;;;;44.58;18.05;;;10.50;99.90;;;9.19;100.00;101851.69;4895285;28;20077;-84
2021/10/27 00:04:50;;;;;;;42.15;17.95;;;10.60;99.90;;;9.18;100.00;101851.75;4877524;29;20081;-84
2021/10/27 00:07:16;;;;;;;;;;;10.60;99.90;;;9.21;100.00;101852.50;4878916;28;20073;-84
2021/10/27 00:09:50;;;;;;;35.20;16.52;;;;;;;9.20;100.00;101856.06;4833145;28;20036;-83
2021/10/27 00:12:16;;;;;;;47.22;17.60;;;10.60;99.90;;;9.15;100.00;101846.53;4893092;28;20035;-85
2021/10/27 00:14:43;;;;;;;41.22;18.15;;;10.50;99.90;;;9.17;100.00;101845.59;4908053;28;20460;-83
2021/10/27 00:17:35;;;;;;;40.28;17.52;;;10.60;99.90;;;9.19;100.00;101856.09;4866854;28;20179;-83
2021/10/27 00:20:03;;;;;;;34.47;18.38;;;;;;;9.18;100.00;101854.38;4857163;29;20066;-84
2021/10/27 00:22:35;;;;;;;40.33;17.58;;;10.60;99.90;;;9.19;100.00;101856.09;4856701;28;20074;-84
2021/10/27 00:25:01;;;;;;;39.60;18.45;;;10.60;99.90;;;9.21;100.00;101875.31;4887860;29;20073;-84
2021/10/27 00:27:27;;;;;;;42.22;18.63;;;10.60;99.90;;;9.27;100.00;101877.81;4870981;29;21112;-84
2021/10/27 00:29:54;;;;;;;35.88;17.77;;;10.60;99.90;;;9.20;100.00;101871.81;4856949;28;21191;-84
2021/10/27 00:32:20;;;;;;;41.78;17.20;;;10.60;99.90;;;9.21;100.00;101860.41;4829138;29;20070;-84
2021/10/27 00:34:48;;;;;;;39.72;18.65;;;10.60;99.90;;;9.21;100.00;101855.13;4852649;29;20084;-84
2021/10/27 00:37:20;;;;;;;45.60;17.77;;;10.60;99.90;;;9.22;100.00;101851.63;4880206;29;20159;-84
2021/10/27 00:39:47;;;;;;;40.55;18.38;;;10.60;99.90;;;9.19;100.00;101851.69;4854741;29;20405;-84
2021/10/27 00:42:19;;;;;;;38.33;17.35;;;10.60;99.90;;;9.21;100.00;101847.25;4847479;29;20069;-84
2021/10/27 00:44:49;;;;;;;40.25;17.73;;;;;;;9.22;100.00;101841.13;4851055;29;20071;-84
2021/10/27 00:47:16;;;;;;;43.50;18.45;;;10.60;99.90;;;9.21;100.00;101841.16;4845735;29;20130;-84
2021/10/27 00:49:51;;;;;;;38.30;15.88;;;10.60;99.90;;;9.22;100.00;101834.97;4849125;28;20079;-84
2021/10/27 00:52:19;;;;;;;44.33;17.92;;;10.60;99.90;;;9.24;100.00;101843.69;4875213;28;20076;-84
2021/10/27 00:54:54;;;;;;;41.53;17.75;;;10.60;99.90;;;9.32;100.00;101852.25;4896489;28;20164;-84
2021/10/27 00:57:24;;;;;;;37.55;17.67;;;10.70;99.90;;;9.33;100.00;101842.59;4866409;28;20098;-84
2021/10/27 00:59:57;;;;;;;43.85;17.67;;;;;;;9.30;100.00;101833.03;4894765;28;20069;-84
2021/10/27 01:02:24;;;;;;;36.95;17.80;;;10.70;99.90;;;9.27;100.00;101825.25;4895389;28;20060;-84
2021/10/27 01:04:50;;;;;;;36.70;17.08;;;10.60;99.90;;;9.26;100.00;101817.38;4871640;28;20077;-84
2021/10/27 01:07:26;;;;;;;;;;;;;;;;;;;;;
2021/10/27 01:09:54;;;;;;;37.55;17.33;;;10.60;99.90;;;9.19;100.00;101814.88;4896937;28;22162;-84
2021/10/27 01:12:20;;;;;;;34.13;17.17;;;10.60;99.90;;;9.20;100.00;101814.00;4900426;28;20061;-83
2021/10/27 01:14:56;;;;;;;37.50;16.63;;;10.50;99.90;;;9.16;100.00;101822.84;4872132;28;20074;-84
2021/10/27 01:17:22;;;;;;;38.28;16.42;;;11.50;99.90;;;9.13;100.00;101815.03;4878078;28;20077;-84
2021/10/27 01:20:14;;;;;;;;;;;10.50;99.90;;;9.14;100.00;101811.53;4870830;28;20060;-84
2021/10/27 01:22:40;;;;;;;34.72;14.43;;;10.50;99.90;;;9.13;100.00;101808.91;4871748;28;19961;-84
2021/10/27 01:25:11;;;;;;;35.70;15.45;;;10.50;99.90;;;9.15;100.00;101810.59;4877532;28;20105;-84
2021/10/27 01:27:46;;;;;;;36.97;16.77;;;;;;;9.19;100.00;101804.38;4876684;28;20072;-84
2021/10/27 01:30:25;;;;;;;33.30;15.70;;;10.60;99.90;;;9.21;100.00;101807.84;4895103;28;20513;-83
2021/10/27 01:32:52;;;;;;;33.13;15.88;;;10.60;99.90;;;9.19;100.00;101799.13;4896162;28;20140;-84
2021/10/27 01:35:29;;;;;;;31.10;14.90;;;10.60;99.90;;;9.19;100.00;101800.91;4871389;28;20080;-84
2021/10/27 01:37:55;;;;;;;39.25;15.45;;;10.60;99.90;;;9.17;100.00;101790.41;4858925;28;20069;-84
2021/10/27 01:40:31;;;;;;;28.42;14.60;;;;;;;9.18;100.00;101792.16;4914797;28;20071;-84
2021/10/27 01:42:57;;;;;;;32.17;14.60;;;10.60;99.90;;;9.21;100.00;101794.69;4886232;28;20065;-84
2021/10/27 01:45:49;;;;;;;;;;;10.50;99.90;;;9.24;100.00;101793.75;4844808;28;20081;-84
2021/10/27 01:48:15;;;;;;;30.08;13.85;;;10.60;99.90;;;9.24;100.00;101792.00;4913906;28;20414;-84
2021/10/27 01:50:43;;;;;;;31.75;15.15;;;10.60;99.90;;;9.30;100.00;101795.38;4867760;28;20072;-83
2021/10/27 01:53:18;;;;;;;31.67;14.52;;;10.60;99.90;;;9.34;100.00;101791.78;4896915;28;20069;-83
2021/10/27 01:55:44;;;;;;;30.10;13.80;;;10.70;99.90;;;9.33;100.00;101787.41;4921539;28;20130;-83
2021/10/27 01:58:10;;;;;;;32.17;14.98;;;10.70;99.90;;;9.34;100.00;101786.53;4893719;28;20087;-84
2021/10/27 02:00:36;;;;;;;34.05;14.63;;;10.70;99.90;;;9.38;100.00;101782.94;4873860;28;20684;-83
2021/10/27 02:03:07;;;;;;;;;;;10.70;99.90;;;9.44;100.00;101790.66;4895693;28;20061;-83
2021/10/27 02:05:33;;;;;;;32.33;14.02;;;;;;;9.51;100.00;101800.13;4877203;28;19955;-83
2021/10/27 02:07:59;;;;;;;27.35;13.80;;;10.80;99.90;;;9.48;100.00;101781.81;4858269;28;20066;-84
2021/10/27 02:10:26;;;;;;;30.95;14.15;;;;;;;9.43;100.00;101783.66;4902408;28;20077;-84
2021/10/27 02:12:51;;;;;;;29.45;13.35;;;10.80;99.90;;;9.39;100.00;101785.50;4869063;28;20634;-84
2021/10/27 02:15:25;;;;;;;29.13;14.68;;;10.80;99.90;;;9.40;100.00;101787.25;4892760;28;20169;-84
2021/10/27 02:17:51;;;;;;;30.75;14.77;;;10.70;99.90;;;9.36;100.00;101789.97;4863628;28;20507;-84
2021/10/27 02:20:17;;;;;;;29.50;14.15;;;;;;;9.35;100.00;101788.25;4868749;28;20152;-84
2021/10/27 02:22:43;;;;;;;31.70;14.65;;;10.70;99.90;;;9.34;100.00;101794.41;4879734;28;20070;-84
2021/10/27 02:25:18;;;;;;;26.60;12.70;;;10.70;99.90;;;9.37;100.00;101829.38;4892503;28;20039;-83
2021/10/27 02:27:44;;;;;;;30.15;14.05;;;10.70;99.90;;;9.31;100.00;101800.63;4903971;28;21402;-84
2021/10/27 02:30:11;;;;;;;33.15;14.13;;;10.70;99.90;;;9.29;100.00;101814.66;4878539;28;20061;-84
2021/10/27 02:32:48;;;;;;;31.13;13.27;;;10.70;99.90;;;9.28;100.00;101811.19;4865807;28;20531;-83
2021/10/27 02:35:14;;;;;;;29.85;14.07;;;10.70;99.90;;;9.31;100.00;101812.88;4882503;28;20094;-84
2021/10/27 02:37:40;;;;;;;31.10;14.10;;;10.70;99.90;;;9.29;100.00;101807.66;4891861;28;20065;-84
2021/10/27 02:40:07;;;;;;;;;;;10.70;99.90;;;9.32;100.00;101790.97;4902854;28;20104;-84
2021/10/27 02:42:36;;;;;;;27.30;14.02;;;10.70;99.90;;;9.34;100.00;101795.28;4888073;28;20055;-84
2021/10/27 02:45:03;;;;;;;26.77;13.45;;;10.90;99.90;;;9.39;100.00;101801.25;4894469;28;20042;-84
2021/10/27 02:47:28;;;;;;;28.48;13.80;;;10.80;99.90;;;9.45;100.00;101801.13;4840756;28;20075;-84
2021/10/27 02:49:54;;;;;;;30.60;13.73;;;10.80;99.90;;;9.43;100.00;101795.03;4892914;28;20655;-83
2021/10/27 02:52:20;;;;;;;;;;;10.80;99.90;;;9.46;100.00;101799.38;4879603;28;20162;-84
2021/10/27 02:54:55;;;;;;;24.50;13.15;;;10.80;99.90;;;9.47;100.00;101795.84;4914070;28;20364;-83
2021/10/27 02:57:21;;;;;;;29.25;13.63;;;10.80;99.90;;;9.49;100.00;101804.53;4897253;28;20095;-84
2021/10/27 02:59:47;;;;;;;31.63;13.90;;;10.90;99.90;;;9.50;100.00;101795.75;4857807;28;22401;-83
2021/10/27 03:02:13;;;;;;;;;;;10.90;99.90;;;9.50;100.00;101800.16;4925132;28;20372;-83
2021/10/27 03:04:39;;;;;;;28.27;14.00;;;10.90;99.90;;;9.51;100.00;101786.13;4906473;28;19945;-84
2021/10/27 03:07:13;;;;;;;;;;;10.90;99.90;;;9.54;100.00;101786.88;4876002;28;20207;-84
2021/10/27 03:09:39;;;;;;;29.42;14.23;;;10.90;99.90;;;9.55;100.00;101791.25;4896994;28;19978;-83
2021/10/27 03:12:06;;;;;;;31.25;14.18;;;10.90;99.90;;;9.60;100.00;101793.75;4904887;28;20046;-84
2021/10/27 03:14:43;;;;;;;27.83;13.75;;;10.90;99.90;;;9.58;100.00;101791.16;4880103;28;20270;-84
2021/10/27 03:17:19;;;;;;;36.00;14.18;;;10.90;99.90;;;9.58;100.00;101788.53;4892067;28;20038;-83
2021/10/27 03:19:45;;;;;;;33.13;13.15;;;;;;;9.61;100.00;101791.09;4901679;28;20076;-84
2021/10/27 03:22:12;;;;;;;29.00;13.43;;;;;;;9.64;100.00;101788.38;4873599;28;20124;-83
2021/10/27 03:24:38;;;;;;;30.50;14.35;;;11.00;99.90;;;9.64;100.00;101779.63;4893598;28;20069;-83
2021/10/27 03:27:13;;;;;;;27.65;14.18;;;11.00;99.90;;;9.66;100.00;101796.25;4900138;28;20053;-83
2021/10/27 03:29:43;;;;;;;29.08;13.70;;;11.00;99.90;;;9.70;100.00;101790.00;4892169;28;20042;-83
2021/10/27 03:32:15;;;;;;;28.02;15.10;;;11.00;99.90;;;9.68;100.00;101786.53;4875045;28;20028;-83
2021/10/27 03:34:41;;;;;;;32.83;14.75;;;11.00;99.90;;;9.71;100.00;101801.38;4909815;28;20598;-83
2021/10/27 03:37:07;;;;;;;;;;;11.00;99.90;;;9.71;100.00;101791.72;4886627;28;20438;-83
2021/10/27 03:39:42;;;;;;;29.20;13.75;;;11.00;99.90;;;9.72;100.00;101788.19;4869314;28;19945;-83
2021/10/27 03:42:09;;;;;;;31.80;14.40;;;11.10;99.90;;;9.73;100.00;101784.66;4890865;28;20140;-83
2021/10/27 03:44:35;;;;;;;28.15;14.10;;;11.10;99.90;;;9.74;100.00;101780.25;4898498;28;20032;-84
2021/10/27 03:47:09;;;;;;;28.35;14.05;;;11.10;99.90;;;9.75;100.00;101788.09;4903382;28;20042;-83
2021/10/27 03:49:35;;;;;;;32.35;14.93;;;11.10;99.90;;;9.77;100.00;101777.53;4895636;28;20061;-83
2021/10/27 03:52:02;;;;;;;24.00;13.15;;;11.10;99.90;;;9.79;100.00;101775.75;4894285;28;20594;-83
2021/10/27 03:54:29;;;;;;;32.92;14.48;;;11.10;99.90;;;9.77;100.00;101780.19;4913112;28;20062;-83
2021/10/27 03:57:18;;;;;;;24.70;14.48;;;11.10;99.90;;;9.76;100.00;101779.31;4866468;28;20054;-83
2021/10/27 03:59:44;;;;;;;32.30;13.77;;;11.10;99.90;;;9.79;100.00;101786.25;4866777;28;20092;-83
2021/10/27 04:02:11;;;;;;;27.70;14.48;;;11.10;99.90;;;9.76;100.00;101789.84;4893200;28;20493;-83
2021/10/27 04:04:45;;;;;;;37.63;14.38;;;11.20;99.90;;;9.79;100.00;101786.25;4914500;28;20031;-84
2021/10/27 04:07:11;;;;;;;27.05;13.00;;;11.10;99.90;;;9.78;100.00;101776.63;4855924;28;20729;-83
2021/10/27 04:09:37;;;;;;;26.95;12.80;;;11.10;99.90;;;9.81;100.00;101784.47;4890825;28;20601;-83
2021/10/27 04:12:04;;;;;;;26.95;13.13;;;11.10;99.90;;;9.79;100.00;101779.22;4895109;28;20069;-83
2021/10/27 04:14:57;;;;;;;29.52;13.90;;;11.20;99.90;;;9.79;100.00;101784.50;4863713;28;20080;-84
2021/10/27 04:17:24;;;;;;;32.75;13.95;;;11.10;99.90;;;9.83;100.00;101778.25;4877231;28;21099;-83
2021/10/27 04:19:58;;;;;;;30.80;15.02;;;11.20;99.90;;;9.81;100.00;101777.41;4883976;28;20465;-83
2021/10/27 04:22:24;;;;;;;30.42;13.95;;;11.20;99.90;;;9.81;100.00;101772.16;4917131;28;20039;-83
2021/10/27 04:24:51;;;;;;;30.52;14.30;;;11.10;99.90;;;9.82;100.00;101775.66;4923089;28;20043;-83
2021/10/27 04:27:22;;;;;;;;;;;11.20;99.90;;;9.83;100.00;101777.38;4895555;28;20139;-83
2021/10/27 04:29:48;;;;;;;23.55;11.70;;;11.40;99.90;;;9.82;100.00;101765.97;4963101;28;20314;-83
2021/10/27 04:32:15;;;;;;;28.02;12.85;;;11.20;99.90;;;9.89;100.00;101779.81;4890813;28;21121;-83
2021/10/27 04:34:41;;;;;;;31.05;12.80;;;11.20;99.90;;;9.84;100.00;101782.59;4891240;28;20049;-83
2021/10/27 04:37:08;;;;;;;;;;;11.20;99.90;;;9.83;100.00;101772.13;4854185;28;20154;-83
2021/10/27 04:39:35;;;;;;;26.38;11.75;;;11.20;99.90;;;9.86;100.00;101775.53;4900376;28;19940;-83
2021/10/27 04:42:03;;;;;;;33.33;12.43;;;11.20;99.90;;;9.89;100.00;101760.56;4903479;28;20582;-83
2021/10/27 04:44:32;;;;;;;25.25;11.70;;;;;;;9.93;100.00;101759.56;4905083;28;20511;-83
2021/10/27 04:47:01;;;;;;;33.40;11.35;;;11.30;99.90;;;9.94;100.00;101750.78;4903289;28;20081;-83
2021/10/27 04:49:29;;;;;;;27.30;11.10;;;11.30;99.90;;;9.94;100.00;101748.16;4890173;28;20042;-83
2021/10/27 04:51:59;;;;;;;28.52;11.80;;;11.30;99.90;;;9.95;100.00;101753.34;4876408;28;24356;-83
2021/10/27 04:54:25;;;;;;;28.38;10.65;;;11.30;99.90;;;9.97;100.00;101753.31;4866310;28;20066;-83
2021/10/27 04:56:52;;;;;;;23.70;11.13;;;11.30;99.90;;;9.97;100.00;101750.69;4920821;28;20111;-83
2021/10/27 04:59:18;;;;;;;23.60;11.82;;;;;;;9.97;100.00;101755.94;4889104;28;20036;-83
2021/10/27 05:01:48;;;;;;;21.38;11.07;;;11.30;99.90;;;10.00;100.00;101754.13;4929932;28;20073;-83
2021/10/27 05:04:15;;;;;;;24.50;10.48;;;11.50;99.90;;;10.01;100.00;101768.97;4911273;28;20121;-83
2021/10/27 05:06:42;;;;;;;22.45;10.82;;;11.30;99.90;;;9.98;100.00;101761.19;4895326;28;20529;-83
2021/10/27 05:09:27;;;;;;;26.60;9.82;;;11.40;99.90;;;10.01;100.00;101747.06;4858302;28;20560;-83
2021/10/27 05:11:55;;;;;;;27.20;10.15;;;11.40;99.90;;;9.99;100.00;101759.41;4874761;28;20065;-83
2021/10/27 05:14:21;;;;;;;27.27;10.35;;;11.30;99.90;;;9.99;100.00;101765.53;4861425;28;20074;-83
2021/10/27 05:16:47;;;;;;;24.40;11.20;;;11.40;99.90;;;10.02;100.00;101769.84;4928020;28;20632;-83
2021/10/27 05:19:13;;;;;;;;;;;11.40;99.90;;;10.00;100.00;101771.66;4885485;28;20484;-83
2021/10/27 05:21:39;;;;;;;21.17;8.82;;;11.40;99.90;;;10.01;100.00;101768.97;4875265;28;20316;-83
2021/10/27 05:24:14;;;;;;;18.20;9.70;;;11.30;99.90;;;10.00;100.00;101764.63;4916712;28;20121;-83
2021/10/27 05:26:40;;;;;;;22.58;10.60;;;11.30;99.90;;;9.98;100.00;101762.97;4866902;28;20096;-83
2021/10/27 05:29:06;;;;;;;24.30;8.75;;;11.30;99.90;;;9.99;100.00;101767.31;4888166;28;20094;-83
2021/10/27 05:31:32;;;;;;;;;;;12.40;99.90;;;9.99;100.00;101759.41;4900709;28;20074;-83
2021/10/27 05:34:10;;;;;;;21.45;10.05;;;;;;;10.01;100.00;101766.34;4913772;28;19951;-84
2021/10/27 05:36:51;;;;;;;31.30;9.45;;;11.30;99.90;;;9.99;100.00;101762.91;4948656;28;20070;-83
2021/10/27 05:39:27;;;;;;;22.75;9.98;;;11.30;99.90;;;9.95;100.00;101753.34;4887845;28;20073;-83
2021/10/27 05:41:53;;;;;;;24.17;9.18;;;11.30;99.90;;;9.93;100.00;101755.16;4913303;28;20521;-83
2021/10/27 05:44:20;;;;;;;23.30;9.48;;;11.30;99.90;;;9.96;100.00;101773.53;4863118;28;20061;-83
2021/10/27 05:46:56;;;;;;;20.45;9.52;;;11.30;99.90;;;9.97;100.00;101767.34;4880495;28;20068;-82
2021/10/27 05:49:34;;;;;;;21.60;9.23;;;11.30;99.90;;;9.97;100.00;101772.59;4878060;28;20165;-83
2021/10/27 05:55:03;;;;;;;20.38;9.60;;;11.30;99.90;;;9.98;100.00;101776.97;4887224;28;20057;-83
2021/10/27 05:57:40;;;;;;;27.95;9.95;;;11.30;99.90;;;9.98;100.00;101768.22;4916265;28;20087;-82
2021/10/27 06:00:10;;;;;;;27.48;9.40;;;11.40;99.90;;;10.02;100.00;101761.94;4877928;28;20035;-83
2021/10/27 06:02:37;;;;;;;25.10;9.70;;;11.40;99.90;;;10.02;100.00;101756.69;4918204;28;20052;-83
2021/10/27 06:05:04;;;;;;;22.95;9.32;;;11.30;99.90;;;9.99;100.00;101769.94;4867546;28;20130;-83
2021/10/27 06:07:32;;;;;;;21.65;10.00;;;11.40;99.90;;;10.09;100.00;101775.81;4911162;28;20057;-83
2021/10/27 06:10:05;;;;;;;16.75;8.32;;;11.40;99.90;;;10.05;100.00;101759.25;4876642;28;20156;-83
2021/10/27 06:12:31;;;;;;;18.27;8.30;;;11.40;99.90;;;10.06;100.00;101772.38;4917407;28;20065;-83
2021/10/27 06:14:57;;;;;;;;;;;11.40;99.90;;;10.07;100.00;101767.97;4925893;28;20144;-83
2021/10/27 06:17:23;;;;;;;28.05;9.13;;;11.40;99.90;;;10.09;100.00;101760.03;4931891;28;19964;-83
2021/10/27 06:19:57;;;;;;;26.17;8.82;;;11.50;99.90;;;10.10;100.00;101762.59;4903043;28;20073;-83
2021/10/27 06:22:23;;;;;;;20.30;8.38;;;11.50;99.90;;;10.11;100.00;101769.59;4900694;28;20039;-83
2021/10/27 06:27:14;;;;;;;25.53;8.57;;;11.50;99.90;;;10.18;100.00;101765.88;5029905;27;20415;-83
2021/10/27 06:29:44;;;;;;;19.63;8.75;;;11.50;99.90;;;10.18;100.00;101759.75;4995882;28;20070;-83
2021/10/27 06:34:45;;;;;;;23.73;8.80;;;11.50;99.90;;;10.20;100.00;101768.47;4987406;28;20826;-83
2021/10/27 06:48:32;;;;;;;25.02;7.68;;;11.70;99.90;;;10.36;100.00;101775.03;4950754;28;20106;-83
2021/10/27 06:50:58;;;;;;;18.88;9.05;;;11.70;99.90;;;10.36;100.00;101780.31;4967574;28;20541;-83
2021/10/27 06:53:24;;;;;;;18.27;9.02;;;11.70;99.90;;;10.39;100.00;101787.28;4984373;28;20097;-82
2021/10/27 06:56:00;;;;;;;19.75;7.78;;;11.70;99.90;;;10.37;100.00;101776.78;4918827;28;20654;-83
2021/10/27 06:58:26;;;;;;;14.73;7.82;;;11.70;99.90;;;10.40;100.00;101794.25;4965687;28;20078;-83
2021/10/27 07:01:02;;;;;;;22.55;8.40;;;11.80;99.90;;;10.42;100.00;101801.19;4961309;28;20060;-83
2021/10/27 07:06:25;;;;;;;19.08;8.65;;;11.80;99.90;;;10.48;100.00;101808.06;4978120;28;20510;-82
2021/10/27 07:17:21;;;;;;;21.45;7.70;;;11.90;99.90;;;10.55;100.00;101806.13;4942020;28;20113;-83
2021/10/27 07:19:47;;;;;;;14.88;7.95;;;11.90;99.90;;;10.59;100.00;101808.63;4969884;28;20063;-83
2021/10/27 07:22:21;;;;;;;21.83;8.18;;;;;;;10.67;100.00;101811.03;4919008;28;20029;-82
2021/10/27 07:24:47;;;;;;;18.42;7.82;;;12.00;99.90;;;10.73;100.00;101820.50;4998701;28;20072;-83
2021/10/27 07:27:13;;;;;;;;;;;12.10;99.90;;;10.79;100.00;101817.69;5006764;28;20568;-83
2021/10/27 07:29:43;;;;;;;23.53;7.90;;;12.10;99.90;;;10.86;100.00;101820.13;4979418;28;19920;-82
2021/10/27 07:32:18;;;;;;;16.67;7.65;;;12.20;99.90;;;10.92;100.00;101826.09;4987255;28;20122;-82
2021/10/27 07:43:18;;;;;;;14.50;7.72;;;12.40;99.90;;;11.18;100.00;101833.19;4974188;28;20154;-83
2021/10/27 07:45:54;;;;;;;16.25;7.93;;;12.50;99.90;;;11.33;100.00;101845.88;4980184;28;20029;-83
2021/10/27 07:48:31;;;;;;;14.48;7.95;;;12.60;99.90;;;11.50;100.00;101850.63;4957501;28;20037;-82
2021/10/27 07:50:58;;;;;;;18.92;8.57;;;12.80;99.90;;;11.55;100.00;101842.56;4935168;28;20033;-83
2021/10/27 07:53:27;;;;;;;21.92;7.55;;;12.70;99.90;;;11.51;100.00;101833.88;4963879;28;20053;-83
2021/10/27 07:56:00;;;;;;;17.02;8.65;;;12.70;99.90;;;11.47;100.00;101877.09;4935209;28;20045;-82
2021/10/27 07:58:27;;;;;;;16.92;8.27;;;12.70;99.90;;;11.44;100.00;101866.63;4937591;28;20674;-82
2021/10/27 08:01:00;;;;;;;20.00;8.48;;;12.70;99.90;;;11.42;100.00;101873.75;4931986;28;21131;-84
2021/10/27 08:03:35;;;;;;;22.85;9.35;;;12.70;99.90;;;11.40;100.00;101862.38;4906964;28;20034;-83
2021/10/27 08:06:09;;;;;;;19.27;9.57;;;12.60;99.90;;;11.39;100.00;101858.03;4964700;28;20570;-83
2021/10/27 08:08:35;;;;;;;17.40;8.23;;;12.70;99.90;;;11.42;100.00;101855.28;4960090;28;20032;-84
2021/10/27 08:11:11;;;;;;;16.67;8.52;;;;;;;11.42;100.00;101864.03;4952463;28;20058;-84
2021/10/27 08:13:38;;;;;;;22.85;9.45;;;12.70;99.90;;;11.44;100.00;101853.44;4950149;28;20117;-83
2021/10/27 08:16:13;;;;;;;20.88;9.90;;;12.70;99.90;;;11.41;100.00;101843.88;4972353;28;20041;-83
2021/10/27 08:18:39;;;;;;;15.95;8.80;;;12.70;99.90;;;11.44;100.00;101850.81;4961029;28;20120;-83
2021/10/27 08:21:06;;;;;;;21.63;8.90;;;12.70;99.90;;;11.48;100.00;104723.03;4930882;28;20079;-83
2021/10/27 08:23:46;;;;;;;19.48;8.95;;;12.70;99.90;;;11.53;100.00;102530.22;4941542;28;20051;-83
2021/10/27 08:26:24;;;;;;;21.42;9.07;;;12.80;99.90;;;11.63;100.00;102458.75;4943788;28;20554;-83
2021/10/27 08:29:27;;;;;;;18.50;9.15;;;13.00;99.90;;;11.79;100.00;102411.78;4960302;28;20610;-82
2021/10/27 08:31:47;;;;;;;17.25;8.57;;;13.20;99.90;;;11.96;100.00;102178.19;4925466;28;20125;-83
2021/10/27 08:34:32;;;;;;;16.73;8.70;;;13.20;99.90;;;12.08;100.00;102104.78;4905921;28;20119;-83
2021/10/27 08:37:04;;;;;;;14.77;8.48;;;13.40;99.90;;;12.21;100.00;102041.03;4933356;28;20042;-83
2021/10/27 08:39:30;;;;;;;28.30;10.10;;;13.40;99.90;;;12.21;100.00;102023.41;4922179;28;20065;-83
2021/10/27 08:42:07;;;;;;;21.33;8.70;;;13.40;99.90;;;12.20;100.00;102032.25;4904624;28;20117;-83
2021/10/27 08:44:34;;;;;;;17.73;8.52;;;13.40;99.90;;;12.16;100.00;102027.09;4952087;28;20127;-83
2021/10/27 08:47:02;;;;;;;;;;;13.40;99.90;;;12.18;100.00;102031.44;4936660;28;20102;-83
2021/10/27 08:49:35;;;;;;;16.23;8.80;;;13.40;99.90;;;12.27;100.00;102025.84;4985208;28;20057;-83
2021/10/27 08:52:06;;;;;;;18.85;8.77;;;13.50;99.90;;;12.37;100.00;102028.16;4924919;28;20044;-81
2021/10/27 08:54:42;;;;;;;15.88;8.52;;;13.60;99.90;;;12.44;100.00;102043.78;4952701;28;20087;-83
2021/10/27 09:07:22;;;;;;;20.30;8.95;;;13.30;99.90;;;12.05;100.00;102044.16;4932345;23;20047;-82
2021/10/27 09:35:14;;;;;;;21.73;8.60;;;13.40;99.90;;;12.14;100.00;102011.31;4945059;28;20093;-84
2021/10/27 10:05:01;;;;;;;15.70;7.43;;;13.60;99.90;;;12.42;100.00;102000.69;4945623;28;20255;-82
2021/10/27 10:08:02;;;;;;;22.88;9.52;;;13.70;99.90;;;12.44;100.00;101990.94;4931541;28;20094;-83
2021/10/27 10:11:15;;;;;;;17.85;8.18;;;13.70;99.90;;;12.45;100.00;101997.09;4911597;28;20069;-83
2021/10/27 10:13:47;;;;;;;16.58;7.63;;;13.70;99.90;;;12.47;100.00;101992.59;4927487;28;20103;-82
2021/10/27 10:17:11;;;;;;;20.17;8.25;;;13.70;99.90;;;12.46;100.00;101986.47;4881840;28;20494;-82
2021/10/27 10:20:00;;;;;;;12.65;7.57;;;13.70;99.90;;;12.48;100.00;101989.94;4929491;28;20121;-82
2021/10/27 10:22:39;;;;;;;15.02;7.07;;;13.70;99.90;;;12.49;100.00;101996.06;4930344;28;20049;-82
2021/10/27 10:25:49;;;;;;;19.17;6.82;;;13.70;99.90;;;12.57;100.00;101993.13;4922787;28;20123;-82
2021/10/27 10:28:50;;;;;;;17.73;7.65;;;13.80;99.90;;;12.61;100.00;101984.19;4955221;28;20076;-83
2021/10/27 10:31:46;;;;;;;13.20;7.22;;;13.80;99.90;;;12.65;100.00;101986.66;4933992;28;20453;-82
2021/10/27 10:34:53;;;;;;;16.23;6.82;;;13.90;99.90;;;12.68;100.00;101983.09;4975893;28;20116;-82
2021/10/27 10:37:37;;;;;;;21.02;7.30;;;13.90;99.90;;;12.64;100.00;101976.19;4926198;28;20673;-82
2021/10/27 10:43:11;;;;;;;11.90;7.30;;;13.90;99.90;;;12.67;100.00;101973.41;4968394;28;20068;-82
2021/10/27 11:24:05;;;;;;;14.88;6.72;;;13.90;99.90;;;12.64;100.00;101933.91;4970628;28;20050;-82
2021/10/27 11:37:57;;;;;;;15.48;7.05;;;13.80;99.90;;;12.51;100.00;101923.75;4962248;28;20109;-82
2021/10/27 11:40:59;;;;;;;14.25;7.05;;;13.80;99.90;;;12.54;100.00;101929.84;4919485;28;20475;-81
2021/10/27 11:43:42;;;;;;;14.20;8.18;;;13.70;99.90;;;12.49;100.00;101915.03;4936957;28;20046;-81
2021/10/27 11:51:15;;;;;;;13.15;7.07;;;13.80;99.90;;;12.52;100.00;101904.34;4944376;28;20018;-81
2021/10/27 11:53:44;;;;;;;29.67;11.65;;;13.80;99.90;;;12.56;100.00;101898.97;4951333;28;20105;-81
2021/10/27 11:56:18;;;;;;;29.08;13.88;;;13.80;99.90;;;12.54;100.00;101900.78;4970974;28;20092;-81
2021/10/27 11:59:47;;;;;;;19.10;9.02;;;13.80;99.90;;;12.54;100.00;101892.88;4964284;28;20099;-81
2021/10/27 12:02:25;;;;;;;16.92;7.30;;;13.70;99.90;;;12.58;100.00;101886.56;4951261;28;20116;-80
2021/10/27 12:05:34;;;;;;;14.23;6.85;;;13.80;99.90;;;12.69;100.00;101906.38;4980070;28;20038;-81
2021/10/27 12:11:08;;;;;;;11.88;7.05;;;14.00;99.90;;;12.87;100.00;101906.59;4953644;28;20029;-81
2021/10/27 12:19:02;;;;;;;15.93;7.45;;;14.10;99.90;;;12.92;100.00;101868.53;4959512;28;20556;-81
2021/10/27 12:21:29;;;;;;;9.93;5.95;;;14.10;99.90;;;12.93;100.00;101878.16;4922389;28;20488;-81
2021/10/27 12:23:58;;;;;;;13.13;7.03;;;14.20;99.90;;;12.99;100.00;101879.72;4963482;28;20030;-81
2021/10/27 12:26:25;;;;;;;18.13;7.47;;;14.10;99.90;;;12.91;100.00;101853.59;4983376;28;20051;-81
2021/10/27 12:29:14;;;;;;;12.80;6.53;;;14.10;99.90;;;12.90;100.00;101846.56;4969521;28;20034;-81
2021/10/27 12:31:42;;;;;;;21.77;7.82;;;14.10;99.90;;;12.91;100.00;101807.75;4973769;28;20394;-80
2021/10/27 12:34:26;;;;;;;11.77;6.18;;;14.10;99.90;;;12.87;100.00;101856.38;4999787;28;20072;-81
2021/10/27 12:36:54;;;;;;;10.32;6.00;;;14.10;99.90;;;12.88;100.00;101861.63;4979566;28;20068;-81
2021/10/27 12:39:41;;;;;;;8.30;5.28;;;14.10;99.90;;;12.84;100.00;101843.28;4936375;28;20046;-80
2021/10/27 12:42:11;;;;;;;12.02;6.30;;;14.10;99.90;;;12.87;100.00;101837.88;4966103;28;20108;-80
2021/10/27 12:44:51;;;;;;;10.48;6.00;;;14.10;99.90;;;12.82;100.00;101855.72;4974280;28;20494;-79
2021/10/27 12:47:33;;;;;;;14.95;6.78;;;14.00;99.90;;;12.81;100.00;101833.72;4962639;28;20429;-79
2021/10/27 12:50:15;;;;;;;11.48;6.70;;;14.00;99.90;;;12.79;100.00;101835.53;4975763;28;20117;-79
2021/10/27 12:52:55;;;;;;;16.10;7.72;;;14.00;99.90;;;12.71;100.00;101825.25;4972842;28;20143;-79
2021/10/27 12:55:39;;;;;;;20.17;7.68;;;13.90;99.90;;;12.64;100.00;101822.91;4966758;28;20490;-79
2021/10/27 12:58:16;;;;;;;13.55;7.72;;;13.80;99.90;;;12.57;100.00;101819.66;4981677;28;20565;-79
2021/10/27 13:06:05;;;;;;;12.02;7.45;;;13.80;99.90;;;12.51;100.00;101812.81;4982103;28;20046;-79
2021/10/27 13:24:05;;;;;;;12.00;6.38;;;13.60;99.90;;;12.41;100.00;101813.19;4998065;28;20062;-79
2021/10/27 13:32:00;;;;;;;14.88;5.80;;;13.70;99.90;;;12.44;100.00;101810.44;4994636;28;20053;-79
2021/10/27 13:34:26;;;;;;;9.40;5.20;;;13.70;99.90;;;12.46;100.00;101803.31;4987100;28;20427;-79
2021/10/27 13:36:53;;;;;;;;;;;13.70;99.90;;;12.46;100.00;101812.13;4955308;28;20512;-79
2021/10/27 13:39:22;;;;;;;8.48;4.82;;;13.70;99.90;;;12.43;100.00;101816.66;4943427;28;20405;-78
2021/10/27 13:41:54;;;;;;;8.18;5.25;;;13.70;99.90;;;12.40;100.00;101822.91;4981869;28;20695;-78
2021/10/27 13:44:24;;;;;;;9.10;5.63;;;13.70;99.90;;;12.41;100.00;101816.69;4982946;28;20105;-78
2021/10/27 13:47:05;;;;;;;12.55;5.55;;;13.70;99.90;;;12.45;100.00;101826.22;4978518;28;20387;-79